createdAt,value
2019-05-14T00:00:52.178Z,16.37
2019-05-14T00:03:22.092Z,18.33
2019-05-14T00:05:51.890Z,19.03
2019-05-14T00:08:22.422Z,20.67
2019-05-14T00:10:52.226Z,21.23
2019-05-14T00:13:21.984Z,20.13
2019-05-14T00:15:52.201Z,20.70
2019-05-14T00:18:22.547Z,19.20
2019-05-14T00:20:53.273Z,20.07
2019-05-14T00:23:22.730Z,20.47
2019-05-14T00:25:52.437Z,20.40
2019-05-14T00:28:22.138Z,20.00
2019-05-14T00:30:52.419Z,21.40
2019-05-14T00:33:22.659Z,21.00
2019-05-14T00:35:52.419Z,21.20
2019-05-14T00:38:23.020Z,20.53
2019-05-14T00:40:53.318Z,20.73
2019-05-14T00:43:22.758Z,19.33
2019-05-14T00:45:52.188Z,20.50
2019-05-14T00:48:22.255Z,20.73
2019-05-14T00:50:51.968Z,19.53
2019-05-14T00:53:21.569Z,20.43
2019-05-14T00:55:51.627Z,21.87
2019-05-14T00:58:21.744Z,20.67
2019-05-14T01:00:52.604Z,20.47
2019-05-14T01:03:22.440Z,18.97
2019-05-14T01:05:52.378Z,20.27
2019-05-14T01:08:22.259Z,19.63
2019-05-14T01:10:51.688Z,20.50
2019-05-14T01:13:21.934Z,20.07
2019-05-14T01:15:52.278Z,19.57
2019-05-14T01:18:22.167Z,19.57
2019-05-14T01:20:52.870Z,18.10
2019-05-14T01:23:22.376Z,19.20
2019-05-14T01:25:51.918Z,19.40
2019-05-14T01:28:21.809Z,19.30
2019-05-14T01:30:52.002Z,18.07
2019-05-14T01:33:22.841Z,17.50
2019-05-14T01:35:52.325Z,17.60
2019-05-14T01:38:22.287Z,17.10
2019-05-14T01:40:52.567Z,18.17
2019-05-14T01:43:22.283Z,16.27
2019-05-14T01:45:52.454Z,16.27
2019-05-14T01:48:22.248Z,16.33
2019-05-14T01:50:52.162Z,14.90
2019-05-14T01:53:22.176Z,17.27
2019-05-14T01:55:52.126Z,16.33
2019-05-14T01:58:22.167Z,16.37
2019-05-14T02:00:52.435Z,15.97
2019-05-14T02:03:22.305Z,15.57
2019-05-14T02:05:52.227Z,15.23
2019-05-14T02:08:22.120Z,15.63
2019-05-14T02:10:52.620Z,16.57
2019-05-14T02:13:22.262Z,15.43
2019-05-14T02:15:52.117Z,15.43
2019-05-14T02:18:21.920Z,15.50
2019-05-14T02:20:52.219Z,15.57
2019-05-14T02:23:22.677Z,15.83
2019-05-14T02:25:52.417Z,17.53
2019-05-14T02:28:22.318Z,16.93
2019-05-14T02:30:58.121Z,17.00
2019-05-14T02:33:23.068Z,15.63
2019-05-14T02:35:52.680Z,17.00
2019-05-14T02:38:22.185Z,16.93
2019-05-14T02:40:51.756Z,16.00
2019-05-14T02:43:21.329Z,16.00
2019-05-14T02:46:09.105Z,14.73
2019-05-14T02:48:22.208Z,16.23
2019-05-14T02:50:51.706Z,15.73
2019-05-14T02:53:21.215Z,16.17
2019-05-14T02:55:50.697Z,14.07
2019-05-14T02:58:21.088Z,15.40
2019-05-14T03:00:50.874Z,16.87
2019-05-14T03:03:20.498Z,17.80
2019-05-14T03:05:50.077Z,18.50
2019-05-14T03:08:20.134Z,16.93
2019-05-14T03:10:50.742Z,17.57
2019-05-14T03:13:20.664Z,16.87
2019-05-14T03:15:50.399Z,16.57
2019-05-14T03:18:20.180Z,18.90
2019-05-14T03:20:50.443Z,19.90
2019-05-14T03:23:23.088Z,20.90
2019-05-14T03:25:51.513Z,17.20
2019-05-14T03:28:21.126Z,15.90
2019-05-14T03:30:52.838Z,16.17
2019-05-14T03:33:22.695Z,16.70
2019-05-14T03:36:01.324Z,17.00
2019-05-14T03:38:23.850Z,17.77
2019-05-14T03:40:53.389Z,18.37
2019-05-14T03:43:23.070Z,17.33
2019-05-14T03:45:52.631Z,18.60
2019-05-14T03:48:22.291Z,19.63
2019-05-14T03:50:51.861Z,18.77
2019-05-14T03:53:21.442Z,19.33
2019-05-14T03:55:51.002Z,18.73
2019-05-14T03:58:21.663Z,17.60
2019-05-14T04:01:00.478Z,17.17
2019-05-14T04:03:29.593Z,16.73
2019-05-14T04:06:02.491Z,16.70
2019-05-14T04:08:35.016Z,15.87
2019-05-14T04:11:04.838Z,17.20
2019-05-14T04:13:40.614Z,17.20
2019-05-14T04:16:11.063Z,18.10
2019-05-14T04:18:42.065Z,17.33
2019-05-14T04:21:15.005Z,18.73
2019-05-14T04:23:50.812Z,19.90
2019-05-14T04:26:21.217Z,17.40
2019-05-14T04:28:51.932Z,16.90
2019-05-14T04:31:21.686Z,16.77
2019-05-14T04:33:53.984Z,14.63
2019-05-14T04:36:23.561Z,14.57
2019-05-14T04:38:55.187Z,16.13
2019-05-14T04:41:24.558Z,15.20
2019-05-14T04:43:54.123Z,15.47
2019-05-14T04:46:23.700Z,15.20
2019-05-14T04:48:59.256Z,13.70
2019-05-14T04:51:30.181Z,13.50
2019-05-14T04:54:00.313Z,13.03
2019-05-14T04:57:19.727Z,14.40
2019-05-14T04:59:03.286Z,14.97
2019-05-14T05:01:32.940Z,13.87
2019-05-14T05:04:02.522Z,15.50
2019-05-14T05:06:32.333Z,16.60
2019-05-14T05:09:01.926Z,14.73
2019-05-14T05:11:33.246Z,15.70
2019-05-14T05:14:02.827Z,16.60
2019-05-14T05:16:32.397Z,15.97
2019-05-14T05:19:01.946Z,16.70
2019-05-14T05:21:31.457Z,15.77
2019-05-14T05:24:00.960Z,16.53
2019-05-14T05:26:30.625Z,17.73
2019-05-14T05:29:06.514Z,19.37
2019-05-14T05:31:32.807Z,19.00
2019-05-14T05:34:02.313Z,19.07
2019-05-14T05:36:31.886Z,19.37
2019-05-14T05:39:01.330Z,20.77
2019-05-14T05:41:31.226Z,19.57
2019-05-14T05:44:00.672Z,20.03
2019-05-14T05:46:30.121Z,18.90
2019-05-14T05:49:00.725Z,18.20
2019-05-14T05:51:30.230Z,19.27
2019-05-14T05:53:59.799Z,18.27
2019-05-14T05:56:29.227Z,17.33
2019-05-14T05:59:00.636Z,16.13
2019-05-14T06:01:42.127Z,15.67
2019-05-14T06:04:01.378Z,16.30
2019-05-14T06:06:30.945Z,16.40
2019-05-14T06:09:00.545Z,16.23
2019-05-14T06:11:31.518Z,16.83
2019-05-14T06:14:01.127Z,15.73
2019-05-14T06:16:30.797Z,16.77
2019-05-14T06:19:00.415Z,19.03
2019-05-14T06:21:29.836Z,17.50
2019-05-14T06:24:02.737Z,18.43
2019-05-14T06:26:30.641Z,18.43
2019-05-14T06:29:00.151Z,16.37
2019-05-14T06:31:29.710Z,15.97
2019-05-14T06:33:59.406Z,16.53
2019-05-14T06:36:29.221Z,18.40
2019-05-14T06:38:59.143Z,16.83
2019-05-14T06:41:28.648Z,19.77
2019-05-14T06:43:59.069Z,16.53
2019-05-14T06:46:28.979Z,19.17
2019-05-14T06:48:59.060Z,18.17
2019-05-14T06:51:29.034Z,15.43
2019-05-14T06:53:58.904Z,15.67
2019-05-14T06:56:28.546Z,17.50
2019-05-14T06:58:58.758Z,17.80
2019-05-14T07:01:29.216Z,17.10
2019-05-14T07:03:59.026Z,14.60
2019-05-14T07:06:29.202Z,14.97
2019-05-14T07:08:59.001Z,16.67
2019-05-14T07:11:29.193Z,13.37
2019-05-14T07:13:59.108Z,16.10
2019-05-14T07:16:28.895Z,15.30
2019-05-14T07:18:59.179Z,14.50
2019-05-14T07:21:29.299Z,16.03
2019-05-14T07:23:59.405Z,15.77
2019-05-14T07:26:29.811Z,15.43
2019-05-14T07:28:59.485Z,17.03
2019-05-14T07:31:29.300Z,16.33
2019-05-14T07:33:58.983Z,17.83
2019-05-14T07:39:23.123Z,16.90
2019-05-14T07:41:54.342Z,16.47
2019-05-14T07:44:25.675Z,16.60
2019-05-14T07:46:58.994Z,16.60
2019-05-14T07:49:38.635Z,15.37
2019-05-14T07:52:09.727Z,13.87
2019-05-14T07:54:45.316Z,14.53
2019-05-14T07:57:28.389Z,15.97
2019-05-14T07:59:48.521Z,17.20
2019-05-14T08:02:20.882Z,16.50
2019-05-14T08:04:50.563Z,16.93
2019-05-14T08:07:20.138Z,15.77
2019-05-14T08:09:49.824Z,17.77
2019-05-14T08:12:19.531Z,18.27
2019-05-14T08:15:02.087Z,17.03
2019-05-14T08:17:20.385Z,18.60
2019-05-14T08:19:58.339Z,17.83
2019-05-14T08:22:29.124Z,18.20
2019-05-14T08:24:59.020Z,19.00
2019-05-14T08:27:31.138Z,17.50
2019-05-14T08:30:00.028Z,18.40
2019-05-14T08:32:29.613Z,17.90
2019-05-14T08:34:59.049Z,16.23
2019-05-14T08:37:28.667Z,16.97
2019-05-14T08:39:58.881Z,19.10
2019-05-14T08:42:29.062Z,18.93
2019-05-14T08:44:59.389Z,18.07
2019-05-14T08:47:29.361Z,18.77
2019-05-14T08:49:59.936Z,17.47
2019-05-14T08:52:29.957Z,15.03
2019-05-14T08:55:09.185Z,15.63
2019-05-14T08:57:31.780Z,16.50
2019-05-14T09:00:01.346Z,16.90
2019-05-14T09:02:31.967Z,16.17
2019-05-14T09:05:04.151Z,16.60
2019-05-14T09:07:32.803Z,14.63
2019-05-14T09:10:02.315Z,14.40
2019-05-14T09:12:33.024Z,15.27
2019-05-14T09:15:02.666Z,16.23
2019-05-14T09:17:32.344Z,15.83
2019-05-14T09:20:06.901Z,14.83
2019-05-14T09:22:33.187Z,14.90
2019-05-14T09:25:02.696Z,15.37
2019-05-14T09:27:32.270Z,14.63
2019-05-14T09:30:01.939Z,14.97
2019-05-14T09:32:31.467Z,15.40
2019-05-14T09:35:01.114Z,14.70
2019-05-14T09:37:30.685Z,15.27
2019-05-14T09:40:00.387Z,16.73
2019-05-14T09:42:30.002Z,16.50
2019-05-14T09:44:59.733Z,14.40
2019-05-14T09:47:29.355Z,15.07
2019-05-14T09:50:15.083Z,14.80
2019-05-14T09:52:30.352Z,13.67
2019-05-14T09:54:59.931Z,13.70
2019-05-14T09:57:29.437Z,15.00
2019-05-14T09:59:59.086Z,14.47
2019-05-14T10:02:28.680Z,12.63
2019-05-14T10:04:59.822Z,12.87
2019-05-14T10:07:29.815Z,14.67
2019-05-14T10:09:59.477Z,13.20
2019-05-14T10:12:29.251Z,16.03
2019-05-14T10:14:59.284Z,12.77
2019-05-14T10:17:29.126Z,12.20
2019-05-14T10:20:08.827Z,12.90
2019-05-14T10:22:39.707Z,16.00
2019-05-14T10:25:20.987Z,14.27
2019-05-14T10:27:44.742Z,14.50
2019-05-14T10:30:15.103Z,15.40
2019-05-14T10:32:44.807Z,16.43
2019-05-14T10:35:14.749Z,16.47
2019-05-14T10:37:44.333Z,15.10
2019-05-14T10:40:14.203Z,16.77
2019-05-14T10:42:43.771Z,16.20
2019-05-14T10:45:13.908Z,18.67
2019-05-14T10:47:43.521Z,20.03
2019-05-14T10:50:14.014Z,17.83
2019-05-14T10:52:43.804Z,16.63
2019-05-14T10:55:13.545Z,15.63
2019-05-14T10:57:43.138Z,15.30
2019-05-14T11:00:12.958Z,15.40
2019-05-14T11:02:42.528Z,14.70
2019-05-14T11:05:12.712Z,15.13
2019-05-14T11:07:42.406Z,14.73
2019-05-14T11:10:12.187Z,14.13
2019-05-14T11:12:41.805Z,13.77
2019-05-14T11:15:12.073Z,13.97
2019-05-14T11:17:41.766Z,12.80
2019-05-14T11:20:11.436Z,14.40
2019-05-14T11:22:41.102Z,12.27
2019-05-14T11:25:11.184Z,12.93
2019-05-14T11:27:40.838Z,14.43
2019-05-14T11:30:11.616Z,13.30
2019-05-14T11:32:41.130Z,11.90
2019-05-14T11:35:13.085Z,12.60
2019-05-14T11:37:42.791Z,13.00
2019-05-14T11:40:13.492Z,12.90
2019-05-14T11:42:43.066Z,12.97
2019-05-14T11:45:14.166Z,13.07
2019-05-14T11:47:43.920Z,14.53
2019-05-14T11:50:14.931Z,14.00
2019-05-14T11:52:44.501Z,12.93
2019-05-14T11:55:14.777Z,13.50
2019-05-14T11:57:44.382Z,12.50
2019-05-14T12:00:15.769Z,11.87
2019-05-14T12:02:45.378Z,11.57
2019-05-14T12:05:14.949Z,12.10
2019-05-14T12:07:44.520Z,12.20
2019-05-14T12:10:14.133Z,13.07
2019-05-14T12:12:43.698Z,12.57
2019-05-14T12:15:13.371Z,12.53
2019-05-14T12:17:42.876Z,11.13
2019-05-14T12:20:12.730Z,11.30
2019-05-14T12:22:42.461Z,12.53
2019-05-14T12:25:13.648Z,11.83
2019-05-14T12:27:43.377Z,12.67
2019-05-14T12:30:13.321Z,11.60
2019-05-14T12:32:43.140Z,11.33
2019-05-14T12:35:12.736Z,10.57
2019-05-14T12:37:42.308Z,12.07
2019-05-14T12:40:13.195Z,12.77
2019-05-14T12:42:42.828Z,12.30
2019-05-14T12:45:12.655Z,10.77
2019-05-14T12:48:03.778Z,12.13
2019-05-14T12:50:33.486Z,11.37
2019-05-14T12:53:31.143Z,10.57
2019-05-14T12:56:05.229Z,10.00
2019-05-14T12:58:45.313Z,9.60
2019-05-14T13:01:10.631Z,9.27
2019-05-14T13:03:44.285Z,8.27
2019-05-14T13:06:15.703Z,9.37
2019-05-14T13:08:45.407Z,9.10
2019-05-14T13:11:16.444Z,8.80
2019-05-14T13:13:48.796Z,7.73
2019-05-14T13:16:19.887Z,8.13
2019-05-14T13:18:50.362Z,7.47
2019-05-14T13:21:20.977Z,7.40
2019-05-14T13:23:50.506Z,6.80
2019-05-14T13:26:20.244Z,6.53
2019-05-14T13:28:51.100Z,5.73
2019-05-14T13:31:20.814Z,6.70
2019-05-14T13:33:50.580Z,5.90
2019-05-14T13:39:28.323Z,6.23
2019-05-14T13:42:14.813Z,6.27
2019-05-14T13:44:32.900Z,6.83
2019-05-14T13:47:02.457Z,6.33
2019-05-14T13:49:32.144Z,6.10
2019-05-14T13:52:03.348Z,6.70
2019-05-14T13:54:39.527Z,7.37
2019-05-14T13:57:19.143Z,7.63
2019-05-14T13:59:51.907Z,7.83
2019-05-14T14:02:21.645Z,7.93
2019-05-14T14:04:54.472Z,8.33
2019-05-14T14:07:24.154Z,8.77
2019-05-14T14:09:53.945Z,9.00
2019-05-14T14:12:25.441Z,9.27
2019-05-14T14:14:58.655Z,9.47
2019-05-14T14:17:29.287Z,9.47
2019-05-14T14:20:00.077Z,8.67
2019-05-14T14:22:29.830Z,8.30
2019-05-14T14:24:59.591Z,9.20
2019-05-14T14:27:29.963Z,9.77
2019-05-14T14:30:00.123Z,8.80
2019-05-14T14:32:29.685Z,9.20
2019-05-14T14:34:59.239Z,8.37
2019-05-14T14:37:28.786Z,9.03
2019-05-14T14:39:59.325Z,7.93
2019-05-14T14:42:31.490Z,9.37
2019-05-14T14:45:00.269Z,7.83
2019-05-14T14:47:29.870Z,8.07
2019-05-14T14:50:00.357Z,8.50
2019-05-14T14:52:30.556Z,8.77
2019-05-14T14:55:00.099Z,10.50
2019-05-14T14:57:30.544Z,9.77
2019-05-14T15:00:00.552Z,9.57
2019-05-14T15:02:30.241Z,10.23
2019-05-14T15:05:00.012Z,10.17
2019-05-14T15:07:30.348Z,10.47
2019-05-14T15:10:00.265Z,10.80
2019-05-14T15:12:29.881Z,11.33
2019-05-14T15:14:59.577Z,12.20
2019-05-14T15:17:29.675Z,11.33
2019-05-14T15:19:59.675Z,12.03
2019-05-14T15:22:30.976Z,12.57
2019-05-14T15:25:00.393Z,11.63
2019-05-14T15:27:29.894Z,12.03
2019-05-14T15:29:59.537Z,10.27
2019-05-14T15:32:30.331Z,11.93
2019-05-14T15:35:00.019Z,10.53
2019-05-14T15:37:31.680Z,11.50
2019-05-14T15:40:03.896Z,12.00
2019-05-14T15:42:32.251Z,11.57
2019-05-14T15:45:01.825Z,12.77
2019-05-14T15:47:31.851Z,11.57
2019-05-14T15:50:01.704Z,12.83
2019-05-14T15:52:32.281Z,13.03
2019-05-14T15:55:01.894Z,13.07
2019-05-14T15:57:32.462Z,12.57
2019-05-14T16:00:01.943Z,13.40
2019-05-14T16:02:31.628Z,13.20
2019-05-14T16:05:01.195Z,14.13
2019-05-14T16:07:30.827Z,13.40
2019-05-14T16:10:01.065Z,13.30
2019-05-14T16:12:32.285Z,13.70
2019-05-14T16:15:02.051Z,14.23
2019-05-14T16:17:31.637Z,13.87
2019-05-14T16:20:01.179Z,14.73
2019-05-14T16:22:30.699Z,16.53
2019-05-14T16:25:01.144Z,14.30
2019-05-14T16:27:31.090Z,14.73
2019-05-14T16:30:00.857Z,14.23
2019-05-14T16:32:30.430Z,15.17
2019-05-14T16:34:59.865Z,14.30
2019-05-14T16:37:29.939Z,13.63
2019-05-14T16:40:00.060Z,14.83
2019-05-14T16:42:29.676Z,13.10
2019-05-14T16:44:59.188Z,13.70
2019-05-14T16:47:28.850Z,13.70
2019-05-14T16:49:59.114Z,14.37
2019-05-14T16:52:30.549Z,13.63
2019-05-14T16:55:17.296Z,13.60
2019-05-14T16:57:31.270Z,12.37
2019-05-14T17:00:01.169Z,13.13
2019-05-14T17:02:31.072Z,14.23
2019-05-14T17:05:01.317Z,16.27
2019-05-14T17:07:34.083Z,15.10
2019-05-14T17:10:04.251Z,14.10
2019-05-14T17:12:48.277Z,12.97
2019-05-14T17:15:09.246Z,12.50
2019-05-14T17:17:37.900Z,11.97
2019-05-14T17:20:08.854Z,12.47
2019-05-14T17:22:39.627Z,12.50
2019-05-14T17:25:09.950Z,13.13
2019-05-14T17:27:39.846Z,11.83
2019-05-14T17:30:10.821Z,13.23
2019-05-14T17:32:40.506Z,13.83
2019-05-14T17:35:10.887Z,13.57
2019-05-14T17:37:40.434Z,13.53
2019-05-14T17:40:12.843Z,12.93
2019-05-14T17:42:42.452Z,12.10
2019-05-14T17:45:12.169Z,13.37
2019-05-14T17:47:42.088Z,13.00
2019-05-14T17:50:11.728Z,13.67
2019-05-14T17:52:44.947Z,14.47
2019-05-14T17:55:14.871Z,14.03
2019-05-14T17:57:48.221Z,13.57
2019-05-14T18:00:18.079Z,14.73
2019-05-14T18:02:53.885Z,13.67
2019-05-14T18:05:29.179Z,14.53
2019-05-14T18:07:59.538Z,15.77
2019-05-14T18:10:29.345Z,15.43
2019-05-14T18:12:59.889Z,13.37
2019-05-14T18:15:29.882Z,14.60
2019-05-14T18:18:00.992Z,12.50
2019-05-14T18:20:30.526Z,13.70
2019-05-14T18:23:00.017Z,15.50
2019-05-14T18:25:29.704Z,16.47
2019-05-14T18:28:02.333Z,16.60
2019-05-14T18:30:31.960Z,16.57
2019-05-14T18:33:01.653Z,15.73
2019-05-14T18:35:31.437Z,16.40
2019-05-14T18:38:01.253Z,16.90
2019-05-14T18:40:30.987Z,16.93
2019-05-14T18:43:01.569Z,15.93
2019-05-14T18:45:41.855Z,14.73
2019-05-14T18:48:19.591Z,15.30
2019-05-14T18:51:13.023Z,16.63
2019-05-14T18:53:45.258Z,17.13
2019-05-14T18:56:20.282Z,18.20
2019-05-14T18:58:48.596Z,19.47
2019-05-14T19:01:19.555Z,20.53
2019-05-14T19:03:54.871Z,20.13
2019-05-14T19:06:28.913Z,19.90
2019-05-14T19:08:58.656Z,21.77
2019-05-14T19:11:29.183Z,20.70
2019-05-14T19:13:58.943Z,21.57
2019-05-14T19:16:28.951Z,22.57
2019-05-14T19:18:58.846Z,19.77
2019-05-14T19:21:28.691Z,19.60
2019-05-14T19:23:58.269Z,19.03
2019-05-14T19:26:34.304Z,20.77
2019-05-14T19:28:59.226Z,20.83
2019-05-14T19:31:28.755Z,20.73
2019-05-14T19:33:58.410Z,20.77
2019-05-14T19:36:28.229Z,20.73
2019-05-14T19:39:04.183Z,25.53
2019-05-14T19:41:33.861Z,27.57
2019-05-14T19:44:04.090Z,21.23
2019-05-14T19:46:35.051Z,21.80
2019-05-14T19:49:04.899Z,17.70
2019-05-14T19:51:38.561Z,17.17
2019-05-14T19:54:08.153Z,17.60
2019-05-14T19:56:51.783Z,16.90
2019-05-14T19:59:09.183Z,16.87
2019-05-14T20:01:38.821Z,17.33
2019-05-14T20:04:09.591Z,17.80
2019-05-14T20:06:40.617Z,15.03
2019-05-14T20:09:10.141Z,17.73
2019-05-14T20:11:39.996Z,15.50
2019-05-14T20:14:09.766Z,18.60
2019-05-14T20:16:39.511Z,19.20
2019-05-14T20:19:09.159Z,22.97
2019-05-14T20:21:39.168Z,21.23
2019-05-14T20:24:08.796Z,20.77
2019-05-14T20:26:39.241Z,19.23
2019-05-14T20:29:09.076Z,20.73
2019-05-14T20:31:39.223Z,20.17
2019-05-14T20:34:10.064Z,19.60
2019-05-14T20:36:39.773Z,19.00
2019-05-14T20:39:09.726Z,17.07
2019-05-14T20:41:40.742Z,17.40
2019-05-14T20:44:11.578Z,12.00
2019-05-14T20:46:42.081Z,10.73
2019-05-14T20:49:11.652Z,7.57
2019-05-14T20:51:41.147Z,6.67
2019-05-14T20:54:10.717Z,6.67
2019-05-14T20:56:40.517Z,5.40
2019-05-14T20:59:09.998Z,4.67
2019-05-14T21:01:39.551Z,3.53
2019-05-14T21:04:09.185Z,2.53
2019-05-14T21:06:39.157Z,2.30
2019-05-14T21:09:08.862Z,1.90
2019-05-14T21:11:38.647Z,1.63
2019-05-14T21:14:08.904Z,1.93
2019-05-14T21:16:39.468Z,1.77
2019-05-14T21:19:09.154Z,1.83
2019-05-14T21:21:38.652Z,1.10
2019-05-14T21:24:08.822Z,1.27
2019-05-14T21:26:40.165Z,1.40
2019-05-14T21:29:09.766Z,1.23
2019-05-14T21:31:39.470Z,1.00
2019-05-14T21:34:10.193Z,1.00
2019-05-14T21:36:41.261Z,1.00
2019-05-14T21:39:11.039Z,0.80
2019-05-14T21:41:40.526Z,1.10
2019-05-14T21:44:10.084Z,1.10
2019-05-14T21:46:40.015Z,0.80
2019-05-14T21:49:11.083Z,0.70
2019-05-14T21:51:40.945Z,0.67
2019-05-14T21:54:10.435Z,0.60
2019-05-14T21:56:39.993Z,0.43
2019-05-14T21:59:09.813Z,0.53
2019-05-14T22:01:39.705Z,0.37
2019-05-14T22:04:11.636Z,0.50
2019-05-14T22:06:41.392Z,0.83
2019-05-14T22:09:11.162Z,0.70
2019-05-14T22:11:40.771Z,1.07
2019-05-14T22:14:10.466Z,1.90
2019-05-14T22:16:40.020Z,0.90
2019-05-14T22:19:09.762Z,0.77
2019-05-14T22:21:41.789Z,0.80
2019-05-14T22:24:10.721Z,2.27
2019-05-14T22:26:40.284Z,0.77
2019-05-14T22:29:09.806Z,1.00
2019-05-14T22:31:40.568Z,0.90
2019-05-14T22:34:11.180Z,1.00
2019-05-14T22:36:40.591Z,1.27
2019-05-14T22:39:10.113Z,1.67
2019-05-14T22:41:39.592Z,1.00
2019-05-14T22:44:09.717Z,1.10
2019-05-14T22:46:40.262Z,1.50
2019-05-14T22:49:15.382Z,1.30
2019-05-14T22:51:44.797Z,1.43
2019-05-14T22:54:14.348Z,1.87
2019-05-14T22:56:44.022Z,1.70
2019-05-14T22:59:13.582Z,1.77
2019-05-14T23:01:43.063Z,1.50
2019-05-14T23:04:12.585Z,2.13
2019-05-14T23:06:42.206Z,2.57
2019-05-14T23:09:11.689Z,2.30
2019-05-14T23:11:41.210Z,2.43
2019-05-14T23:14:10.629Z,2.00
2019-05-14T23:16:41.922Z,1.90
2019-05-14T23:19:18.607Z,1.27
2019-05-14T23:21:48.408Z,1.07
2019-05-14T23:24:19.070Z,1.20
2019-05-14T23:26:49.374Z,1.30
2019-05-14T23:29:19.029Z,1.60
2019-05-14T23:31:48.943Z,1.73
2019-05-14T23:34:19.024Z,2.10
2019-05-14T23:36:48.875Z,1.37
2019-05-14T23:39:18.958Z,0.50
2019-05-14T23:41:48.942Z,0.70
2019-05-14T23:44:19.143Z,0.70
2019-05-14T23:46:48.894Z,0.73
2019-05-14T23:49:18.511Z,0.50
2019-05-14T23:51:48.043Z,0.50
2019-05-14T23:54:18.238Z,0.40
2019-05-14T23:56:48.890Z,0.50
2019-05-14T23:59:18.589Z,0.50
